Time;durP1;ratioP1;P1;durP2;ratioP2;P2;SDS_P1;SDS_P2;PMS_P1;PMS_P2;Temp;Humidity;BMP_temperature;BMP_pressure;BME280_temperature;BME280_humidity;BME280_pressure;Samples;Min_cycle;Max_cycle;Signal;HPM_P1;HPM_P2
2023/06/28 00:00:18;;;;;;;;;;;;;;;20.51;52.17;99471.56;4460139;32;32995;-79
2023/06/28 00:02:47;;;;;;;;;;;;;;;20.34;52.52;99469.91;4462438;32;33970;-78
2023/06/28 00:05:16;;;;;;;;;;;;;;;20.45;52.61;99475.44;4460431;32;33669;-80
2023/06/28 00:07:46;;;;;;;;;;;;;;;20.53;52.49;99474.13;4467131;32;34033;-77
2023/06/28 00:10:20;;;;;;;;;;;;;;;20.46;53.08;99477.16;4465976;32;33071;-76
2023/06/28 00:12:49;;;;;;;;;;;;;;;20.54;52.64;99479.34;4475603;32;33820;-79
2023/06/28 00:15:24;;;;;;;;;;;;;;;20.43;53.82;99479.94;4476071;32;34340;-77
2023/06/28 00:17:53;;;;;;;;;;;;;;;20.48;53.56;99476.19;4476355;32;34672;-77
2023/06/28 00:20:22;;;;;;;;;;;;;;;20.58;53.23;99472.97;4480587;32;34034;-77
2023/06/28 00:22:52;;;;;;;;;;;;;;;20.50;53.49;99477.81;4476979;32;34275;-77
2023/06/28 00:25:27;;;;;;;;;;;;;;;20.50;52.90;99479.59;4471850;32;33881;-76
2023/06/28 00:27:56;;;;;;;;;;;;;;;20.35;52.86;99473.41;4462285;32;34225;-77
2023/06/28 00:30:27;;;;;;;;;;;;;;;20.29;53.43;99463.22;4467466;32;33665;-76
2023/06/28 00:32:59;;;;;;;;;;;;;;;20.37;52.87;99458.34;4464373;32;34495;-76
2023/06/28 00:35:31;;;;;;;;;;;;;;;20.46;52.90;99465.72;4468174;32;34179;-77
2023/06/28 00:38:01;;;;;;;;;;;;;;;20.49;52.42;99462.94;4462281;32;34985;-79
2023/06/28 00:40:37;;;;;;;;;;;;;;;20.46;52.54;99469.25;4462369;32;34140;-78
2023/06/28 00:43:12;;;;;;;;;;;;;;;20.39;52.68;99464.38;4467844;32;34859;-79
2023/06/28 00:45:40;;;;;;;;;;;;;;;20.57;52.02;99473.06;4467437;32;34934;-77
2023/06/28 00:48:13;;;;;;;;;;;;;;;20.56;52.25;99473.97;4462433;32;34445;-77
2023/06/28 00:50:42;;;;;;;;;;;;;;;20.19;53.27;99474.28;4462478;32;33204;-76
2023/06/28 00:53:16;;;;;;;;;;;;;;;20.24;53.40;99476.66;4464914;32;34578;-77
2023/06/28 00:55:44;;;;;;;;;;;;;;;20.31;53.62;99467.47;4468070;32;33819;-77
2023/06/28 00:58:13;;;;;;;;;;;;;;;20.10;54.60;99469.50;4461933;32;34491;-76
2023/06/28 01:00:44;;;;;;;;;;;;;;;20.17;54.58;99472.66;4462716;32;34325;-80
2023/06/28 01:03:18;;;;;;;;;;;;;;;20.10;54.54;99469.50;4463050;32;34234;-78
2023/06/28 01:05:47;;;;;;;;;;;;;;;20.33;53.62;99476.13;4467958;32;33686;-76
2023/06/28 01:08:22;;;;;;;;;;;;;;;20.25;54.06;99468.66;4471872;32;34479;-78
2023/06/28 01:10:50;;;;;;;;;;;;;;;20.07;55.11;99474.97;4477750;32;33631;-76
2023/06/28 01:13:19;;;;;;;;;;;;;;;20.16;54.74;99478.88;4462661;32;34020;-77
2023/06/28 01:15:49;;;;;;;;;;;;;;;20.23;54.60;99480.22;4462472;32;33912;-77
2023/06/28 01:18:21;;;;;;;;;;;;;;;20.22;54.64;99479.38;4483156;32;34087;-80
2023/06/28 01:20:50;;;;;;;;;;;;;;;20.39;53.93;99482.81;4477856;32;33372;-78
2023/06/28 01:23:26;;;;;;;;;;;;;;;20.14;54.91;99483.37;4481864;32;33328;-77
2023/06/28 01:25:54;;;;;;;;;;;;;;;20.04;55.10;99483.03;4477343;32;33945;-79
2023/06/28 01:28:24;;;;;;;;;;;;;;;20.13;54.81;99477.25;4483300;32;34056;-78
2023/06/28 01:30:53;;;;;;;;;;;;;;;20.02;54.96;99472.56;4478037;32;34355;-79
2023/06/28 01:33:22;;;;;;;;;;;;;;;19.91;56.00;99477.59;4479712;32;34255;-78
2023/06/28 01:35:54;;;;;;;;;;;;;;;20.04;55.79;99480.41;4478564;32;35536;-77
2023/06/28 01:38:27;;;;;;;;;;;;;;;20.02;55.98;99483.13;4477439;32;34182;-79
2023/06/28 01:40:56;;;;;;;;;;;;;;;19.78;56.86;99490.56;4483311;32;33744;-79
2023/06/28 01:43:26;;;;;;;;;;;;;;;19.60;57.83;99486.28;4475814;32;33397;-76
2023/06/28 01:45:56;;;;;;;;;;;;;;;19.97;56.55;99481.69;4473143;32;34729;-77
2023/06/28 01:48:25;;;;;;;;;;;;;;;19.99;56.16;99475.37;4472604;32;35080;-77
2023/06/28 01:50:55;;;;;;;;;;;;;;;20.09;55.71;99488.06;4484953;32;34014;-78
2023/06/28 01:53:25;;;;;;;;;;;;;;;19.83;56.30;99487.69;4479326;32;34982;-77
2023/06/28 01:55:57;;;;;;;;;;;;;;;20.08;54.75;99486.34;4479340;32;35083;-77
2023/06/28 01:58:27;;;;;;;;;;;;;;;19.65;55.57;99486.03;4479243;32;34704;-77
2023/06/28 02:00:59;;;;;;;;;;;;;;;19.91;54.49;99484.63;4474593;32;33497;-76
2023/06/28 02:03:32;;;;;;;;;;;;;;;19.63;55.26;99475.59;4469452;32;35086;-77
2023/06/28 02:06:02;;;;;;;;;;;;;;;19.43;56.11;99473.19;4464410;32;34202;-77
2023/06/28 02:08:33;;;;;;;;;;;;;;;19.40;56.03;99476.81;4474451;32;34376;-77
2023/06/28 02:11:01;;;;;;;;;;;;;;;19.48;55.63;99476.41;4479011;32;33926;-79
2023/06/28 02:13:31;;;;;;;;;;;;;;;19.60;55.38;99470.50;4485081;32;34499;-79
2023/06/28 02:16:03;;;;;;;;;;;;;;;19.78;54.84;99456.34;4485019;32;34511;-77
2023/06/28 02:18:34;;;;;;;;;;;;;;;19.59;55.30;99453.84;4479184;32;34943;-78
2023/06/28 02:21:06;;;;;;;;;;;;;;;19.52;55.55;99452.50;4479459;32;33399;-77
2023/06/28 02:23:41;;;;;;;;;;;;;;;19.49;55.84;99460.53;4481789;32;34182;-77
2023/06/28 02:26:12;;;;;;;;;;;;;;;19.55;55.17;99452.31;4484835;32;33997;-78
2023/06/28 02:28:48;;;;;;;;;;;;;;;19.33;55.71;99463.16;4479678;32;34983;-77
2023/06/28 02:31:18;;;;;;;;;;;;;;;19.31;56.35;99459.75;4478956;32;33350;-77
2023/06/28 02:33:48;;;;;;;;;;;;;;;19.55;56.07;99457.59;4480433;32;33800;-76
2023/06/28 02:36:17;;;;;;;;;;;;;;;19.74;55.46;99456.59;4479515;32;35094;-76
2023/06/28 02:38:58;;;;;;;;;;;;;;;19.73;55.71;99454.91;4484345;32;35119;-76
2023/06/28 02:41:32;;;;;;;;;;;;;;;19.60;56.05;99457.34;4479015;32;33913;-77
2023/06/28 02:44:02;;;;;;;;;;;;;;;19.60;56.01;99454.72;4479429;32;34558;-76
2023/06/28 02:46:34;;;;;;;;;;;;;;;19.76;55.50;99462.63;4479334;32;33289;-76
2023/06/28 02:49:03;;;;;;;;;;;;;;;19.69;55.42;99458.63;4479114;32;35019;-79
2023/06/28 02:51:37;;;;;;;;;;;;;;;19.79;55.00;99463.34;4484606;32;33597;-79
2023/06/28 02:54:13;;;;;;;;;;;;;;;19.84;54.75;99465.72;4480783;31;33638;-77
2023/06/28 02:56:43;;;;;;;;;;;;;;;19.81;54.37;99465.88;4478554;32;34375;-78
2023/06/28 02:59:18;;;;;;;;;;;;;;;19.79;54.88;99460.69;4479148;32;34685;-76
2023/06/28 03:01:47;;;;;;;;;;;;;;;19.93;53.98;99469.59;4481895;32;33563;-77
2023/06/28 03:04:22;;;;;;;;;;;;;;;19.76;54.38;99465.28;4484052;32;34794;-77
2023/06/28 03:06:54;;;;;;;;;;;;;;;19.80;54.57;99466.81;4481028;32;34753;-80
2023/06/28 03:09:23;;;;;;;;;;;;;;;19.81;54.97;99465.88;4463287;32;34870;-79
2023/06/28 03:11:54;;;;;;;;;;;;;;;19.60;54.98;99467.87;4464893;32;33382;-76
2023/06/28 03:14:24;;;;;;;;;;;;;;;19.55;55.07;99478.62;4477107;32;33902;-78
2023/06/28 03:16:53;;;;;;;;;;;;;;;19.70;54.97;99470.88;4480679;32;34251;-78
2023/06/28 03:19:25;;;;;;;;;;;;;;;19.92;53.85;99475.81;4478784;32;34892;-77
2023/06/28 03:21:53;;;;;;;;;;;;;;;19.76;54.55;99473.16;4478580;32;33107;-77
2023/06/28 03:24:23;;;;;;;;;;;;;;;19.72;55.29;99469.03;4480925;32;33711;-78
2023/06/28 03:26:58;;;;;;;;;;;;;;;19.66;54.93;99470.16;4483895;32;35193;-79
2023/06/28 03:29:27;;;;;;;;;;;;;;;19.67;54.96;99463.09;4478496;32;34176;-76
2023/06/28 03:32:00;;;;;;;;;;;;;;;19.70;55.36;99469.09;4478567;32;33251;-77
2023/06/28 03:34:29;;;;;;;;;;;;;;;19.67;55.16;99460.47;4479309;32;33915;-77
2023/06/28 03:36:58;;;;;;;;;;;;;;;19.71;54.83;99469.94;4484239;32;34215;-77
2023/06/28 03:39:33;;;;;;;;;;;;;;;19.40;55.12;99469.78;4477259;32;33895;-76
2023/06/28 03:42:06;;;;;;;;;;;;;;;19.12;55.57;99459.84;4478689;32;33415;-78
2023/06/28 03:44:35;;;;;;;;;;;;;;;19.48;55.32;99458.84;4479995;32;34638;-79
2023/06/28 03:47:07;;;;;;;;;;;;;;;19.80;54.33;99469.44;4478828;32;35026;-77
2023/06/28 03:49:36;;;;;;;;;;;;;;;19.65;54.96;99467.63;4484206;32;34815;-78
2023/06/28 03:52:08;;;;;;;;;;;;;;;19.72;54.39;99463.75;4478394;32;33560;-78
2023/06/28 03:54:37;;;;;;;;;;;;;;;19.97;53.11;99463.25;4483791;32;34884;-79
2023/06/28 03:57:11;;;;;;;;;;;;;;;19.76;54.30;99465.28;4478549;32;34051;-77
2023/06/28 03:59:40;;;;;;;;;;;;;;;19.85;53.90;99462.13;4465841;32;33731;-78
2023/06/28 04:02:10;;;;;;;;;;;;;;;19.66;53.96;99466.69;4476950;32;32827;-79
2023/06/28 04:04:38;;;;;;;;;;;;;;;19.77;54.02;99464.34;4475060;32;34925;-79
2023/06/28 04:07:13;;;;;;;;;;;;;;;19.68;53.77;99465.69;4462549;32;34758;-76
2023/06/28 04:09:43;;;;;;;;;;;;;;;19.66;54.02;99467.53;4462647;32;34454;-75
2023/06/28 04:12:14;;;;;;;;;;;;;;;19.60;55.23;99475.75;4468882;32;33562;-76
2023/06/28 04:14:43;;;;;;;;;;;;;;;19.78;53.85;99480.03;4463882;32;34774;-77
2023/06/28 04:17:11;;;;;;;;;;;;;;;19.79;53.85;99481.75;4463024;32;34316;-78
2023/06/28 04:19:42;;;;;;;;;;;;;;;19.25;55.75;99485.50;4462551;32;33710;-78
2023/06/28 04:22:17;;;;;;;;;;;;;;;19.66;54.50;99479.84;4465615;32;32988;-77
2023/06/28 04:24:46;;;;;;;;;;;;;;;19.54;54.99;99484.81;4468274;32;34602;-77
2023/06/28 04:27:18;;;;;;;;;;;;;;;19.31;55.94;99485.22;4462761;32;35021;-79
2023/06/28 04:29:48;;;;;;;;;;;;;;;19.37;55.93;99496.22;4462568;32;35290;-77
2023/06/28 04:32:22;;;;;;;;;;;;;;;19.16;56.53;99498.22;4462930;32;33582;-76
2023/06/28 04:34:52;;;;;;;;;;;;;;;19.19;56.41;99498.06;4480499;32;33809;-80
2023/06/28 04:37:27;;;;;;;;;;;;;;;18.88;56.70;99495.28;4461569;32;34983;-77
2023/06/28 04:39:56;;;;;;;;;;;;;;;18.76;57.59;99494.97;4462464;32;35154;-78
2023/06/28 04:42:32;;;;;;;;;;;;;;;18.91;57.33;99495.12;4464008;32;33943;-76
2023/06/28 04:45:02;;;;;;;;;;;;;;;19.01;57.50;99496.34;4465330;32;33052;-77
2023/06/28 04:47:31;;;;;;;;;;;;;;;18.81;56.94;99496.53;4468214;32;34073;-78
2023/06/28 04:50:01;;;;;;;;;;;;;;;18.81;57.21;99491.28;4462478;32;34362;-76
2023/06/28 04:52:33;;;;;;;;;;;;;;;18.91;57.05;99501.22;4463347;32;33295;-76
2023/06/28 04:55:01;;;;;;;;;;;;;;;18.44;57.89;99509.66;4465762;32;33980;-77
2023/06/28 04:57:36;;;;;;;;;;;;;;;18.56;57.79;99502.97;4465521;32;33737;-77
2023/06/28 05:00:11;;;;;;;;;;;;;;;18.60;57.95;99504.50;4468153;32;33993;-76
2023/06/28 05:02:40;;;;;;;;;;;;;;;18.62;58.63;99504.44;4477704;32;33715;-77
2023/06/28 05:05:10;;;;;;;;;;;;;;;18.89;58.08;99512.75;4474019;32;33895;-77
2023/06/28 05:07:39;;;;;;;;;;;;;;;19.02;57.49;99513.84;4467485;32;33952;-78
2023/06/28 05:10:09;;;;;;;;;;;;;;;19.07;57.56;99513.63;4475969;32;34677;-78
2023/06/28 05:12:44;;;;;;;;;;;;;;;18.90;57.51;99517.94;4477454;32;34098;-77
2023/06/28 05:15:14;;;;;;;;;;;;;;;19.00;58.19;99525.38;4478003;32;34811;-80
2023/06/28 05:17:43;;;;;;;;;;;;;;;19.42;56.40;99522.31;4477072;32;34524;-79
2023/06/28 05:20:13;;;;;;;;;;;;;;;19.48;56.30;99523.78;4477837;32;34130;-77
2023/06/28 05:22:44;;;;;;;;;;;;;;;19.58;56.23;99525.00;4483132;32;33590;-77
2023/06/28 05:25:15;;;;;;;;;;;;;;;19.40;56.71;99525.03;4479496;32;33806;-80
2023/06/28 05:27:46;;;;;;;;;;;;;;;19.60;56.21;99534.50;4478078;32;34786;-78
2023/06/28 05:30:17;;;;;;;;;;;;;;;19.57;55.21;99529.41;4477813;32;34057;-78
2023/06/28 05:32:46;;;;;;;;;;;;;;;19.42;56.26;99531.97;4483216;32;33204;-77
2023/06/28 05:35:15;;;;;;;;;;;;;;;19.52;56.17;99525.28;4480242;32;34299;-77
2023/06/28 05:37:47;;;;;;;;;;;;;;;19.64;55.08;99524.66;4478716;32;33919;-77
2023/06/28 05:40:17;;;;;;;;;;;;;;;19.21;56.00;99528.66;4477493;32;33995;-77
2023/06/28 05:42:47;;;;;;;;;;;;;;;19.34;55.66;99520.06;4474906;32;32692;-76
2023/06/28 05:45:16;;;;;;;;;;;;;;;19.23;56.86;99529.44;4467712;32;33530;-77
2023/06/28 05:47:47;;;;;;;;;;;;;;;19.09;57.57;99522.28;4463052;32;33347;-76
2023/06/28 05:50:17;;;;;;;;;;;;;;;19.24;56.93;99525.91;4462039;32;35101;-79
2023/06/28 05:52:51;;;;;;;;;;;;;;;19.58;55.74;99520.56;4462885;32;33267;-79
2023/06/28 05:55:22;;;;;;;;;;;;;;;19.29;56.55;99524.72;4466997;32;34287;-76
2023/06/28 05:57:52;;;;;;;;;;;;;;;19.59;56.22;99522.25;4465817;32;34958;-79
2023/06/28 06:00:26;;;;;;;;;;;;;;;19.43;55.96;99523.19;4462077;32;34501;-77
2023/06/28 06:02:55;;;;;;;;;;;;;;;19.79;55.56;99536.19;4468591;32;34358;-77
2023/06/28 06:05:24;;;;;;;;;;;;;;;19.91;53.05;99532.03;4477425;32;34973;-77
2023/06/28 06:07:53;;;;;;;;;;;;;;;20.09;52.57;99533.66;4475063;32;34255;-79
2023/06/28 06:10:31;;;;;;;;;;;;;;;19.85;52.58;99533.22;4467899;32;34488;-76
2023/06/28 06:13:01;;;;;;;;;;;;;;;19.78;52.52;99537.09;4472142;32;34132;-77
2023/06/28 06:15:30;;;;;;;;;;;;;;;19.99;52.37;99543.00;4475099;32;34362;-78
2023/06/28 06:17:59;;;;;;;;;;;;;;;20.12;51.18;99540.53;4472267;32;34853;-78
2023/06/28 06:20:33;;;;;;;;;;;;;;;20.00;50.30;99540.28;4477064;32;33850;-76
2023/06/28 06:23:03;;;;;;;;;;;;;;;19.66;51.33;99545.63;4469700;32;33099;-77
2023/06/28 06:25:32;;;;;;;;;;;;;;;19.82;50.81;99552.66;4473842;32;33567;-76
2023/06/28 06:28:02;;;;;;;;;;;;;;;19.86;51.20;99558.63;4472411;32;34144;-77
2023/06/28 06:30:32;;;;;;;;;;;;;;;19.63;51.27;99559.81;4470160;32;33341;-77
2023/06/28 06:33:02;;;;;;;;;;;;;;;19.86;51.46;99566.53;4474396;32;34411;-79
2023/06/28 06:35:32;;;;;;;;;;;;;;;19.90;51.34;99572.47;4476611;32;33784;-79
2023/06/28 06:38:01;;;;;;;;;;;;;;;19.93;50.17;99567.03;4471893;32;33772;-77
2023/06/28 06:40:33;;;;;;;;;;;;;;;19.72;50.49;99569.03;4476970;32;34439;-76
2023/06/28 06:43:06;;;;;;;;;;;;;;;19.63;50.41;99580.84;4485018;32;34120;-76
2023/06/28 06:45:36;;;;;;;;;;;;;;;19.57;50.87;99582.03;4474692;32;34137;-77
2023/06/28 06:48:06;;;;;;;;;;;;;;;19.61;50.14;99575.66;4471396;32;34272;-78
2023/06/28 06:50:36;;;;;;;;;;;;;;;19.29;50.79;99572.06;4476834;32;33333;-80
2023/06/28 06:53:08;;;;;;;;;;;;;;;19.26;51.07;99571.38;4475119;32;33431;-76
2023/06/28 06:55:39;;;;;;;;;;;;;;;18.87;51.06;99570.69;4474859;32;34123;-78
2023/06/28 06:58:09;;;;;;;;;;;;;;;19.18;50.80;99569.13;4472431;32;33894;-79
2023/06/28 07:00:39;;;;;;;;;;;;;;;18.79;50.55;99579.84;4462983;32;34821;-77
2023/06/28 07:03:10;;;;;;;;;;;;;;;18.80;50.92;99576.28;4469366;32;33314;-78
2023/06/28 07:05:39;;;;;;;;;;;;;;;19.22;50.63;99578.56;4473986;32;33972;-79
2023/06/28 07:08:11;;;;;;;;;;;;;;;19.61;49.59;99585.34;4478243;32;34006;-78
2023/06/28 07:10:48;;;;;;;;;;;;;;;19.81;49.08;99584.31;4472014;32;33920;-80
2023/06/28 07:13:19;;;;;;;;;;;;;;;19.63;48.24;99583.47;4471613;32;33289;-77
2023/06/28 07:15:52;;;;;;;;;;;;;;;19.29;49.55;99587.84;4475567;32;33428;-77
2023/06/28 07:18:20;;;;;;;;;;;;;;;19.50;49.28;99590.28;4478543;32;33918;-77
2023/06/28 07:20:52;;;;;;;;;;;;;;;19.39;49.30;99586.44;4470125;32;34621;-80
2023/06/28 07:23:21;;;;;;;;;;;;;;;19.35;49.73;99590.19;4478235;32;34372;-77
2023/06/28 07:25:58;;;;;;;;;;;;;;;19.45;49.53;99582.66;4479099;32;34790;-76
2023/06/28 07:28:35;;;;;;;;;;;;;;;19.52;50.16;99576.16;4482488;32;33720;-76
2023/06/28 07:31:04;;;;;;;;;;;;;;;19.64;49.13;99586.97;4479579;32;34922;-78
2023/06/28 07:33:34;;;;;;;;;;;;;;;19.70;49.32;99595.44;4462640;32;33612;-80
2023/06/28 07:36:03;;;;;;;;;;;;;;;19.78;49.19;99589.75;4464551;32;33745;-78
2023/06/28 07:38:33;;;;;;;;;;;;;;;19.90;49.56;99586.47;4449016;32;32555;-77
2023/06/28 07:41:02;;;;;;;;;;;;;;;19.61;49.21;99590.59;4467577;32;33547;-78
2023/06/28 07:43:36;;;;;;;;;;;;;;;19.86;48.64;99600.75;4471493;32;34301;-76
2023/06/28 07:46:05;;;;;;;;;;;;;;;19.86;48.70;99606.00;4471892;32;34899;-77
2023/06/28 07:48:38;;;;;;;;;;;;;;;19.78;49.25;99602.91;4468637;32;33364;-78
2023/06/28 07:51:06;;;;;;;;;;;;;;;19.69;49.36;99608.66;4474650;32;35689;-77
2023/06/28 07:53:36;;;;;;;;;;;;;;;19.82;49.44;99617.63;4470965;32;33952;-76
2023/06/28 07:56:05;;;;;;;;;;;;;;;19.64;49.75;99608.00;4470704;32;33725;-80
2023/06/28 07:58:42;;;;;;;;;;;;;;;19.80;49.09;99608.94;4472802;32;34818;-77
2023/06/28 08:01:11;;;;;;;;;;;;;;;19.77;48.95;99596.81;4475922;32;33035;-77
2023/06/28 08:03:43;;;;;;;;;;;;;;;19.77;48.63;99595.97;4483538;32;33662;-77
2023/06/28 08:06:11;;;;;;;;;;;;;;;19.43;49.44;99599.47;4466735;32;32443;-75
2023/06/28 08:08:42;;;;;;;;;;;;;;;19.43;50.07;99599.47;4478204;32;33992;-79
2023/06/28 08:11:10;;;;;;;;;;;;;;;19.74;49.30;99596.09;4478121;32;34595;-79
2023/06/28 08:13:50;;;;;;;;;;;;;;;19.86;49.21;99595.47;4483966;32;33794;-77
2023/06/28 08:16:19;;;;;;;;;;;;;;;19.94;49.19;99592.44;4483781;32;34046;-78
2023/06/28 08:18:55;;;;;;;;;;;;;;;19.90;49.31;99578.56;4479009;32;34044;-77
2023/06/28 08:21:27;;;;;;;;;;;;;;;19.80;49.51;99590.53;4478566;32;34706;-78
2023/06/28 08:23:55;;;;;;;;;;;;;;;20.40;48.30;99584.66;4480266;32;32852;-77
2023/06/28 08:26:28;;;;;;;;;;;;;;;20.58;47.47;99583.66;4483960;32;33699;-78
2023/06/28 08:28:58;;;;;;;;;;;;;;;20.39;47.40;99577.69;4470156;32;34796;-78
2023/06/28 08:31:29;;;;;;;;;;;;;;;20.29;47.66;99585.25;4469771;32;34179;-76
2023/06/28 08:33:58;;;;;;;;;;;;;;;19.94;48.99;99587.16;4474845;32;32601;-77
2023/06/28 08:36:31;;;;;;;;;;;;;;;20.46;49.09;99590.44;4469958;32;34707;-77
2023/06/28 08:39:00;;;;;;;;;;;;;;;20.63;48.03;99586.03;4476870;32;34966;-80
2023/06/28 08:41:29;;;;;;;;;;;;;;;20.60;47.73;99588.84;4468378;32;34256;-78
2023/06/28 08:44:01;;;;;;;;;;;;;;;20.61;47.25;99582.63;4462747;32;33693;-79
2023/06/28 08:46:33;;;;;;;;;;;;;;;20.64;47.93;99574.56;4461440;32;34352;-78
2023/06/28 08:49:03;;;;;;;;;;;;;;;20.60;46.81;99578.31;4461797;32;33858;-76
2023/06/28 08:51:36;;;;;;;;;;;;;;;20.78;46.93;99569.38;4465522;32;34241;-78
2023/06/28 08:54:04;;;;;;;;;;;;;;;20.62;47.17;99579.06;4461469;32;32991;-78
2023/06/28 08:56:43;;;;;;;;;;;;;;;20.36;48.06;99573.44;4463822;32;33521;-80
2023/06/28 08:59:22;;;;;;;;;;;;;;;20.55;47.98;99578.56;4465838;32;35008;-75
2023/06/28 09:01:55;;;;;;;;;;;;;;;20.73;47.90;99570.53;4481316;32;33958;-75
2023/06/28 09:04:34;;;;;;;;;;;;;;;20.77;48.12;99566.81;4481489;32;33162;-77
2023/06/28 09:07:28;;;;;;;;;;;;;;;20.70;48.12;99566.28;4476705;32;33765;-75
2023/06/28 09:09:57;;;;;;;;;;;;;;;20.87;47.63;99566.16;4475734;32;33883;-76
2023/06/28 09:12:27;;;;;;;;;;;;;;;20.71;47.54;99569.78;4476158;32;33788;-75
2023/06/28 09:14:57;;;;;;;;;;;;;;;20.72;47.27;99564.44;4476717;32;33587;-76
2023/06/28 09:17:26;;;;;;;;;;;;;;;20.68;47.44;99565.53;4475894;32;33851;-76
2023/06/28 09:20:00;;;;;;;;;;;;;;;20.67;46.96;99556.78;4475781;32;33913;-76
2023/06/28 09:22:32;;;;;;;;;;;;;;;21.03;46.21;99560.88;4465836;32;34970;-75
2023/06/28 09:25:02;;;;;;;;;;;;;;;20.92;47.24;99557.16;4462513;32;34420;-74
2023/06/28 09:27:31;;;;;;;;;;;;;;;21.19;46.49;99558.19;4465714;32;34995;-75
2023/06/28 09:30:19;;;;;;;;;;;;;;;21.20;46.43;99551.13;4465055;32;35196;-76
2023/06/28 09:32:50;;;;;;;;;;;;;;;21.27;46.72;99548.03;4465384;32;35018;-77
2023/06/28 09:35:20;;;;;;;;;;;;;;;21.42;45.35;99556.00;4465273;32;33426;-75
2023/06/28 09:37:51;;;;;;;;;;;;;;;21.42;45.62;99554.19;4462085;32;34671;-77
2023/06/28 09:40:26;;;;;;;;;;;;;;;21.66;45.25;99549.22;4471539;32;34501;-76
2023/06/28 09:42:58;;;;;;;;;;;;;;;21.59;45.47;99547.91;4469774;32;35668;-75
2023/06/28 09:45:28;;;;;;;;;;;;;;;21.89;45.08;99544.31;4466593;32;33443;-75
2023/06/28 09:48:05;;;;;;;;;;;;;;;21.77;44.87;99550.34;4467227;32;34822;-75
2023/06/28 09:50:38;;;;;;;;;;;;;;;21.83;44.50;99547.34;4473604;32;34117;-75
2023/06/28 09:53:12;;;;;;;;;;;;;;;21.84;43.55;99541.09;4470292;32;34063;-75
2023/06/28 09:55:41;;;;;;;;;;;;;;;21.88;42.96;99539.97;4460071;32;33179;-76
2023/06/28 09:58:12;;;;;;;;;;;;;;;21.80;42.72;99539.62;4459302;32;33873;-78
2023/06/28 10:00:42;;;;;;;;;;;;;;;22.10;42.06;99536.84;4459713;32;34040;-75
2023/06/28 10:03:15;;;;;;;;;;;;;;;22.13;42.34;99537.50;4476975;32;33959;-76
2023/06/28 10:05:48;;;;;;;;;;;;;;;22.40;42.37;99536.72;4481437;32;34194;-76
2023/06/28 10:08:17;;;;;;;;;;;;;;;22.45;40.33;99549.63;4467621;32;34764;-75
2023/06/28 10:10:47;;;;;;;;;;;;;;;22.04;39.93;99537.25;4464970;32;34065;-76
2023/06/28 10:13:17;;;;;;;;;;;;;;;22.26;39.79;99542.88;4473786;32;34339;-75
2023/06/28 10:15:52;;;;;;;;;;;;;;;22.42;40.19;99539.25;4482814;32;32596;-77
2023/06/28 10:18:21;;;;;;;;;;;;;;;22.44;41.10;99542.63;4483019;32;33909;-75
2023/06/28 10:20:51;;;;;;;;;;;;;;;22.25;39.03;99540.31;4465973;32;35003;-77
2023/06/28 10:23:20;;;;;;;;;;;;;;;22.41;39.81;99543.69;4469257;32;34325;-75
2023/06/28 10:25:50;;;;;;;;;;;;;;;22.71;40.36;99539.97;4469870;32;34189;-76
2023/06/28 10:28:22;;;;;;;;;;;;;;;22.38;39.61;99530.66;4473651;32;34637;-77
2023/06/28 10:30:56;;;;;;;;;;;;;;;22.88;40.06;99537.09;4477063;32;33460;-76
2023/06/28 10:33:25;;;;;;;;;;;;;;;23.18;40.05;99536.84;4477047;32;34404;-75
2023/06/28 10:36:09;;;;;;;;;;;;;;;23.03;38.56;99527.31;4471328;32;33476;-77
2023/06/28 10:38:42;;;;;;;;;;;;;;;23.05;39.46;99520.13;4475074;32;34664;-76
2023/06/28 10:41:16;;;;;;;;;;;;;;;23.10;38.19;99512.72;4473468;32;34343;-75
2023/06/28 10:43:47;;;;;;;;;;;;;;;23.36;38.89;99518.84;4477539;32;33698;-75
2023/06/28 10:46:23;;;;;;;;;;;;;;;23.36;37.97;99502.12;4465038;32;34199;-76
2023/06/28 10:48:52;;;;;;;;;;;;;;;23.46;37.73;99502.31;4461567;32;34197;-76
2023/06/28 10:51:27;;;;;;;;;;;;;;;23.71;37.99;99504.97;4461331;32;34073;-76
2023/06/28 10:54:07;;;;;;;;;;;;;;;23.94;38.15;99503.34;4474028;32;33780;-77
2023/06/28 10:56:37;;;;;;;;;;;;;;;23.81;37.49;99495.44;4476218;32;33349;-78
2023/06/28 10:59:08;;;;;;;;;;;;;;;24.04;37.87;99491.16;4469235;32;34239;-75
2023/06/28 11:01:40;;;;;;;;;;;;;;;24.60;36.19;99500.38;4467906;32;33058;-76
2023/06/28 11:04:17;;;;;;;;;;;;;;;23.95;36.47;99499.75;4470066;32;34339;-75
2023/06/28 11:06:47;;;;;;;;;;;;;;;23.62;36.50;99502.97;4474049;31;33449;-74
2023/06/28 11:09:19;;;;;;;;;;;;;;;23.48;36.97;99506.56;4472249;31;33160;-75
2023/06/28 11:11:56;;;;;;;;;;;;;;;23.69;37.42;99509.50;4468484;31;32456;-74
2023/06/28 11:14:26;;;;;;;;;;;;;;;24.01;37.40;99499.28;4471427;31;34073;-75
2023/06/28 11:17:01;;;;;;;;;;;;;;;24.17;36.23;99504.34;4471013;31;33328;-75
2023/06/28 11:19:36;;;;;;;;;;;;;;;24.41;35.99;99500.88;4478303;31;33932;-75
2023/06/28 11:22:05;;;;;;;;;;;;;;;24.68;36.37;99493.53;4466848;31;33875;-78
2023/06/28 11:24:41;;;;;;;;;;;;;;;24.87;35.91;99494.81;4476142;31;33832;-75
2023/06/28 11:27:10;;;;;;;;;;;;;;;24.96;34.27;99491.47;4473907;32;33950;-77
2023/06/28 11:30:02;;;;;;;;;;;;;;;23.92;34.88;99493.81;4480285;31;36347;-75
2023/06/28 11:32:32;;;;;;;;;;;;;;;24.00;35.91;99494.12;4480969;31;35135;-76
2023/06/28 11:35:03;;;;;;;;;;;;;;;24.80;34.82;99497.06;4472914;31;34329;-75
2023/06/28 11:37:33;;;;;;;;;;;;;;;25.00;35.41;99489.41;4466501;32;33927;-77
2023/06/28 11:40:04;;;;;;;;;;;;;;;25.26;35.63;99482.97;4466626;32;34802;-77
2023/06/28 11:42:33;;;;;;;;;;;;;;;25.13;33.33;99488.38;4475560;32;34820;-75
2023/06/28 11:45:03;;;;;;;;;;;;;;;24.82;33.31;99476.59;4470127;32;33874;-75
2023/06/28 11:47:34;;;;;;;;;;;;;;;24.95;34.29;99478.31;4470172;32;32376;-77
2023/06/28 11:50:05;;;;;;;;;;;;;;;25.23;34.14;99454.00;4464746;32;34118;-76
2023/06/28 11:52:35;;;;;;;;;;;;;;;25.32;33.69;99461.28;4468078;32;35057;-79
2023/06/28 11:55:10;;;;;;;;;;;;;;;25.30;33.38;99459.69;4472590;32;34834;-76
2023/06/28 11:57:43;;;;;;;;;;;;;;;25.66;33.51;99460.41;4466908;32;33122;-75
2023/06/28 12:00:20;;;;;;;;;;;;;;;25.09;32.60;99463.00;4466759;32;33926;-75
2023/06/28 12:02:52;;;;;;;;;;;;;;;25.51;32.11;99463.28;4467796;32;33969;-76
2023/06/28 12:05:21;;;;;;;;;;;;;;;25.77;32.65;99469.19;4469887;32;33831;-76
2023/06/28 12:07:57;;;;;;;;;;;;;;;25.34;33.24;99461.97;4471568;32;34384;-78
2023/06/28 12:10:33;;;;;;;;;;;;;;;25.57;33.24;99462.00;4466653;32;34593;-79
2023/06/28 12:13:04;;;;;;;;;;;;;;;26.13;31.45;99445.97;4466876;32;34039;-76
2023/06/28 12:15:34;;;;;;;;;;;;;;;26.43;30.51;99447.06;4469981;32;34189;-77
2023/06/28 12:18:06;;;;;;;;;;;;;;;26.11;30.76;99449.72;4463854;32;34067;-75
2023/06/28 12:20:35;;;;;;;;;;;;;;;25.57;31.58;99447.88;4471840;32;34044;-76
2023/06/28 12:23:08;;;;;;;;;;;;;;;25.26;32.82;99450.28;4463241;32;34949;-78
2023/06/28 12:25:41;;;;;;;;;;;;;;;25.07;33.10;99449.00;4476948;32;35818;-77
2023/06/28 12:28:12;;;;;;;;;;;;;;;25.58;32.83;99438.91;4475912;32;33364;-78
2023/06/28 12:30:44;;;;;;;;;;;;;;;25.85;32.06;99426.06;4473744;32;33826;-77
2023/06/28 12:33:14;;;;;;;;;;;;;;;25.72;30.62;99441.31;4470933;32;34681;-77
2023/06/28 12:35:45;;;;;;;;;;;;;;;25.15;31.80;99448.41;4472179;32;35135;-76
2023/06/28 12:38:18;;;;;;;;;;;;;;;25.34;31.87;99448.69;4473714;32;33884;-74
2023/06/28 12:40:50;;;;;;;;;;;;;;;25.50;32.08;99448.34;4466651;32;34498;-75
2023/06/28 12:43:25;;;;;;;;;;;;;;;25.83;32.57;99449.28;4476453;32;34217;-75
2023/06/28 12:46:00;;;;;;;;;;;;;;;25.50;31.42;99448.34;4474707;32;33970;-77
2023/06/28 12:48:30;;;;;;;;;;;;;;;25.47;31.49;99437.97;4467066;32;32915;-76
2023/06/28 12:51:00;;;;;;;;;;;;;;;25.41;31.54;99443.75;4463926;32;33142;-78
2023/06/28 12:53:29;;;;;;;;;;;;;;;25.23;31.85;99434.59;4471410;32;33338;-77
2023/06/28 12:55:58;;;;;;;;;;;;;;;25.37;31.90;99441.44;4471340;32;34528;-75
2023/06/28 12:58:32;;;;;;;;;;;;;;;25.59;31.41;99456.53;4468166;32;34006;-78
2023/06/28 13:01:02;;;;;;;;;;;;;;;25.65;31.68;99450.75;4465837;32;34159;-77
2023/06/28 13:03:35;;;;;;;;;;;;;;;25.81;31.81;99453.88;4468727;32;36064;-76
2023/06/28 13:06:06;;;;;;;;;;;;;;;25.26;31.38;99463.53;4473170;32;34624;-75
2023/06/28 13:08:43;;;;;;;;;;;;;;;24.88;32.83;99456.69;4470436;32;32954;-76